sensor_id;sensor_type;location;lat;lon;timestamp;pressure;altitude;pressure_sealevel;temperature;humidity
8703;BME280;9002;42.708;23.186;2024-01-11T00:01:37;95910.34;;;-0.69;51.12
8703;BME280;9002;42.708;23.186;2024-01-11T00:04:07;95907.88;;;-0.61;51.40
8703;BME280;9002;42.708;23.186;2024-01-11T00:06:41;95928.84;;;-0.41;51.46
8703;BME280;9002;42.708;23.186;2024-01-11T00:09:09;95935.31;;;-0.47;52.58
8703;BME280;9002;42.708;23.186;2024-01-11T00:11:36;95930.84;;;-0.53;52.45
8703;BME280;9002;42.708;23.186;2024-01-11T00:14:03;95928.78;;;-0.49;52.01
8703;BME280;9002;42.708;23.186;2024-01-11T00:16:29;95855.78;;;-1.38;53.16
8703;BME280;9002;42.708;23.186;2024-01-11T00:18:56;95929.59;;;-0.84;53.93
8703;BME280;9002;42.708;23.186;2024-01-11T00:21:23;95923.63;;;-0.75;53.57
8703;BME280;9002;42.708;23.186;2024-01-11T00:23:52;95906.19;;;-0.88;53.08
8703;BME280;9002;42.708;23.186;2024-01-11T00:26:19;95906.38;;;-0.81;53.42
8703;BME280;9002;42.708;23.186;2024-01-11T00:28:46;95927.19;;;-0.68;53.77
8703;BME280;9002;42.708;23.186;2024-01-11T00:31:13;95923.94;;;-0.61;53.46
8703;BME280;9002;42.708;23.186;2024-01-11T00:33:40;95928.72;;;-0.58;53.86
8703;BME280;9002;42.708;23.186;2024-01-11T00:36:07;95921.81;;;-0.65;53.07
8703;BME280;9002;42.708;23.186;2024-01-11T00:38:34;95919.06;;;-0.72;53.83
8703;BME280;9002;42.708;23.186;2024-01-11T00:41:02;95914.31;;;-0.84;53.86
8703;BME280;9002;42.708;23.186;2024-01-11T00:43:29;95921.47;;;-0.70;52.95
8703;BME280;9002;42.708;23.186;2024-01-11T00:45:56;95905.75;;;-0.83;53.42
8703;BME280;9002;42.708;23.186;2024-01-11T00:48:23;95907.53;;;-1.11;55.15
8703;BME280;9002;42.708;23.186;2024-01-11T00:50:50;95885.97;;;-1.25;54.84
8703;BME280;9002;42.708;23.186;2024-01-11T00:53:17;95894.91;;;-1.03;54.38
8703;BME280;9002;42.708;23.186;2024-01-11T00:55:44;95915.09;;;-1.02;53.86
8703;BME280;9002;42.708;23.186;2024-01-11T00:58:12;95902.56;;;-0.86;53.50
8703;BME280;9002;42.708;23.186;2024-01-11T01:00:39;95895.63;;;-0.75;52.22
8703;BME280;9002;42.708;23.186;2024-01-11T01:03:08;95897.47;;;-0.68;51.61
8703;BME280;9002;42.708;23.186;2024-01-11T01:05:35;95885.41;;;-0.83;51.60
8703;BME280;9002;42.708;23.186;2024-01-11T01:08:02;95894.69;;;-0.74;51.08
8703;BME280;9002;42.708;23.186;2024-01-11T01:10:29;95894.09;;;-1.22;52.06
8703;BME280;9002;42.708;23.186;2024-01-11T01:12:56;95893.31;;;-1.04;53.15
8703;BME280;9002;42.708;23.186;2024-01-11T01:15:24;95891.50;;;-1.12;52.47
8703;BME280;9002;42.708;23.186;2024-01-11T01:17:52;95894.84;;;-0.94;52.37
8703;BME280;9002;42.708;23.186;2024-01-11T01:20:19;95893.91;;;-0.93;52.22
8703;BME280;9002;42.708;23.186;2024-01-11T01:22:46;95900.59;;;-0.74;51.56
8703;BME280;9002;42.708;23.186;2024-01-11T01:25:13;95896.09;;;-0.62;51.03
8703;BME280;9002;42.708;23.186;2024-01-11T01:27:40;95895.56;;;-0.66;51.04
8703;BME280;9002;42.708;23.186;2024-01-11T01:30:07;95898.19;;;-0.58;51.28
8703;BME280;9002;42.708;23.186;2024-01-11T01:32:36;95898.09;;;-0.66;51.06
8703;BME280;9002;42.708;23.186;2024-01-11T01:35:03;95889.47;;;-0.91;51.41
8703;BME280;9002;42.708;23.186;2024-01-11T01:37:30;95888.59;;;-0.81;51.73
8703;BME280;9002;42.708;23.186;2024-01-11T01:39:57;95892.44;;;-0.77;51.25
8703;BME280;9002;42.708;23.186;2024-01-11T01:42:24;95878.88;;;-0.86;51.16
8703;BME280;9002;42.708;23.186;2024-01-11T01:44:51;95878.78;;;-0.76;51.17
8703;BME280;9002;42.708;23.186;2024-01-11T01:47:18;95876.16;;;-0.67;50.82
8703;BME280;9002;42.708;23.186;2024-01-11T01:49:46;95875.06;;;-0.64;50.93
8703;BME280;9002;42.708;23.186;2024-01-11T01:52:16;95835.72;;;-0.96;51.68
8703;BME280;9002;42.708;23.186;2024-01-11T01:54:43;95847.31;;;-0.93;51.78
8703;BME280;9002;42.708;23.186;2024-01-11T01:57:11;95864.16;;;-0.74;51.28
8703;BME280;9002;42.708;23.186;2024-01-11T01:59:40;95850.88;;;-1.04;52.25
8703;BME280;9002;42.708;23.186;2024-01-11T02:02:09;95857.16;;;-0.98;52.31
8703;BME280;9002;42.708;23.186;2024-01-11T02:04:37;95851.88;;;-1.78;53.97
8703;BME280;9002;42.708;23.186;2024-01-11T02:07:08;95843.22;;;-1.57;52.15
8703;BME280;9002;42.708;23.186;2024-01-11T02:09:36;95835.50;;;-1.65;52.71
8703;BME280;9002;42.708;23.186;2024-01-11T02:12:04;95835.72;;;-2.14;53.13
8703;BME280;9002;42.708;23.186;2024-01-11T02:14:32;95825.09;;;-2.37;53.11
8703;BME280;9002;42.708;23.186;2024-01-11T02:16:59;95846.97;;;-2.26;53.52
8703;BME280;9002;42.708;23.186;2024-01-11T02:19:27;95846.44;;;-2.30;53.29
8703;BME280;9002;42.708;23.186;2024-01-11T02:21:54;95842.31;;;-2.31;53.58
8703;BME280;9002;42.708;23.186;2024-01-11T02:24:26;95834.72;;;-2.40;54.85
8703;BME280;9002;42.708;23.186;2024-01-11T02:26:59;95843.16;;;-2.03;52.39
8703;BME280;9002;42.708;23.186;2024-01-11T02:29:27;95848.31;;;-2.22;53.56
8703;BME280;9002;42.708;23.186;2024-01-11T02:31:54;95842.66;;;-2.16;52.73
8703;BME280;9002;42.708;23.186;2024-01-11T02:34:22;95822.00;;;-2.21;52.96
8703;BME280;9002;42.708;23.186;2024-01-11T02:36:49;95831.69;;;-2.07;52.92
8703;BME280;9002;42.708;23.186;2024-01-11T02:39:17;95843.38;;;-1.86;52.86
8703;BME280;9002;42.708;23.186;2024-01-11T02:41:47;95841.28;;;-1.73;51.78
8703;BME280;9002;42.708;23.186;2024-01-11T02:44:15;95839.97;;;-1.50;51.61
8703;BME280;9002;42.708;23.186;2024-01-11T02:46:42;95838.88;;;-1.47;51.88
8703;BME280;9002;42.708;23.186;2024-01-11T02:49:09;95832.34;;;-1.77;52.62
8703;BME280;9002;42.708;23.186;2024-01-11T02:51:36;95831.56;;;-1.78;51.72
8703;BME280;9002;42.708;23.186;2024-01-11T02:54:03;95821.75;;;-1.73;52.58
8703;BME280;9002;42.708;23.186;2024-01-11T02:56:30;95825.63;;;-1.68;51.79
8703;BME280;9002;42.708;23.186;2024-01-11T02:58:59;95776.59;;;-1.96;51.24
8703;BME280;9002;42.708;23.186;2024-01-11T03:01:26;95817.66;;;-1.56;52.15
8703;BME280;9002;42.708;23.186;2024-01-11T03:03:53;95828.66;;;-1.37;51.86
8703;BME280;9002;42.708;23.186;2024-01-11T03:06:20;95815.13;;;-1.56;51.13
8703;BME280;9002;42.708;23.186;2024-01-11T03:08:48;95825.28;;;-1.56;51.75
8703;BME280;9002;42.708;23.186;2024-01-11T03:11:15;95828.41;;;-1.44;50.57
8703;BME280;9002;42.708;23.186;2024-01-11T03:13:42;95837.41;;;-1.50;51.07
8703;BME280;9002;42.708;23.186;2024-01-11T03:16:10;95821.72;;;-1.63;52.98
8703;BME280;9002;42.708;23.186;2024-01-11T03:18:37;95822.25;;;-1.59;51.23
8703;BME280;9002;42.708;23.186;2024-01-11T03:21:04;95824.94;;;-1.43;51.01
8703;BME280;9002;42.708;23.186;2024-01-11T03:23:31;95822.41;;;-1.43;50.84
8703;BME280;9002;42.708;23.186;2024-01-11T03:25:58;95807.34;;;-1.54;51.08
8703;BME280;9002;42.708;23.186;2024-01-11T03:28:26;95823.75;;;-1.66;52.41
8703;BME280;9002;42.708;23.186;2024-01-11T03:30:53;95805.06;;;-1.75;52.15
8703;BME280;9002;42.708;23.186;2024-01-11T03:33:21;95820.56;;;-1.68;52.51
8703;BME280;9002;42.708;23.186;2024-01-11T03:35:48;95822.94;;;-1.94;51.88
8703;BME280;9002;42.708;23.186;2024-01-11T03:38:15;95820.06;;;-2.09;53.83
8703;BME280;9002;42.708;23.186;2024-01-11T03:40:42;95819.47;;;-1.93;52.38
8703;BME280;9002;42.708;23.186;2024-01-11T03:43:09;95801.19;;;-1.97;53.72
8703;BME280;9002;42.708;23.186;2024-01-11T03:45:36;95812.94;;;-1.96;52.00
8703;BME280;9002;42.708;23.186;2024-01-11T03:48:04;95817.38;;;-2.08;52.51
8703;BME280;9002;42.708;23.186;2024-01-11T03:50:32;95784.97;;;-2.14;52.44
8703;BME280;9002;42.708;23.186;2024-01-11T03:52:59;95811.91;;;-2.03;53.64
8703;BME280;9002;42.708;23.186;2024-01-11T03:55:26;95813.59;;;-1.94;51.87
8703;BME280;9002;42.708;23.186;2024-01-11T03:57:53;95793.63;;;-2.07;52.41
8703;BME280;9002;42.708;23.186;2024-01-11T04:00:20;95808.13;;;-1.99;52.74
8703;BME280;9002;42.708;23.186;2024-01-11T04:02:47;95793.75;;;-2.08;52.33
8703;BME280;9002;42.708;23.186;2024-01-11T04:05:14;95796.97;;;-2.16;53.58
8703;BME280;9002;42.708;23.186;2024-01-11T04:07:43;95808.25;;;-2.28;54.35
8703;BME280;9002;42.708;23.186;2024-01-11T04:10:11;95790.13;;;-2.33;53.34
8703;BME280;9002;42.708;23.186;2024-01-11T04:12:37;95798.28;;;-2.39;53.83
8703;BME280;9002;42.708;23.186;2024-01-11T04:15:05;95787.44;;;-2.32;52.56
8703;BME280;9002;42.708;23.186;2024-01-11T04:17:32;95783.47;;;-2.16;52.74
8703;BME280;9002;42.708;23.186;2024-01-11T04:19:59;95794.06;;;-2.21;52.32
8703;BME280;9002;42.708;23.186;2024-01-11T04:22:28;95769.03;;;-2.43;52.75
8703;BME280;9002;42.708;23.186;2024-01-11T04:24:56;95786.56;;;-2.13;53.86
8703;BME280;9002;42.708;23.186;2024-01-11T04:27:23;95769.06;;;-2.16;53.42
8703;BME280;9002;42.708;23.186;2024-01-11T04:29:50;95772.25;;;-2.41;54.25
8703;BME280;9002;42.708;23.186;2024-01-11T04:32:17;95780.16;;;-2.17;52.57
8703;BME280;9002;42.708;23.186;2024-01-11T04:34:44;95778.00;;;-2.12;53.43
8703;BME280;9002;42.708;23.186;2024-01-11T04:37:11;95776.31;;;-2.21;53.00
8703;BME280;9002;42.708;23.186;2024-01-11T04:39:38;95791.59;;;-2.03;53.13
8703;BME280;9002;42.708;23.186;2024-01-11T04:42:07;95793.97;;;-2.02;52.59
8703;BME280;9002;42.708;23.186;2024-01-11T04:44:33;95778.47;;;-1.98;52.29
8703;BME280;9002;42.708;23.186;2024-01-11T04:47:01;95784.91;;;-2.04;53.33
8703;BME280;9002;42.708;23.186;2024-01-11T04:49:28;95796.81;;;-2.05;52.71
8703;BME280;9002;42.708;23.186;2024-01-11T04:51:54;95808.88;;;-2.16;54.07
8703;BME280;9002;42.708;23.186;2024-01-11T04:54:21;95783.25;;;-2.23;53.64
8703;BME280;9002;42.708;23.186;2024-01-11T04:56:48;95792.84;;;-2.17;54.20
8703;BME280;9002;42.708;23.186;2024-01-11T04:59:17;95800.09;;;-2.22;54.68
8703;BME280;9002;42.708;23.186;2024-01-11T05:01:45;95787.09;;;-2.19;54.01
8703;BME280;9002;42.708;23.186;2024-01-11T05:04:13;95797.31;;;-2.29;53.93
8703;BME280;9002;42.708;23.186;2024-01-11T05:06:40;95798.25;;;-2.30;52.89
8703;BME280;9002;42.708;23.186;2024-01-11T05:09:08;95803.63;;;-2.42;53.87
8703;BME280;9002;42.708;23.186;2024-01-11T05:11:35;95792.94;;;-2.46;53.11
8703;BME280;9002;42.708;23.186;2024-01-11T05:14:01;95798.66;;;-2.34;54.21
8703;BME280;9002;42.708;23.186;2024-01-11T05:16:30;95783.38;;;-2.62;55.18
8703;BME280;9002;42.708;23.186;2024-01-11T05:18:57;95779.66;;;-2.58;53.93
8703;BME280;9002;42.708;23.186;2024-01-11T05:21:24;95782.84;;;-2.55;53.92
8703;BME280;9002;42.708;23.186;2024-01-11T05:23:51;95770.16;;;-2.55;53.79
8703;BME280;9002;42.708;23.186;2024-01-11T05:26:19;95775.53;;;-2.68;53.73
8703;BME280;9002;42.708;23.186;2024-01-11T05:28:46;95777.16;;;-2.77;55.23
8703;BME280;9002;42.708;23.186;2024-01-11T05:31:15;95765.66;;;-2.71;54.17
8703;BME280;9002;42.708;23.186;2024-01-11T05:33:43;95774.94;;;-2.52;54.08
8703;BME280;9002;42.708;23.186;2024-01-11T05:36:11;95776.84;;;-2.64;54.40
8703;BME280;9002;42.708;23.186;2024-01-11T05:38:39;95771.13;;;-2.66;53.38
8703;BME280;9002;42.708;23.186;2024-01-11T05:41:06;95766.72;;;-2.64;54.58
8703;BME280;9002;42.708;23.186;2024-01-11T05:43:33;95754.22;;;-2.85;54.07
8703;BME280;9002;42.708;23.186;2024-01-11T05:46:00;95772.06;;;-2.67;54.28
8703;BME280;9002;42.708;23.186;2024-01-11T05:48:27;95755.38;;;-2.79;54.13
8703;BME280;9002;42.708;23.186;2024-01-11T05:50:56;95756.31;;;-2.71;53.67
8703;BME280;9002;42.708;23.186;2024-01-11T05:53:23;95771.16;;;-2.76;54.80
8703;BME280;9002;42.708;23.186;2024-01-11T05:55:50;95753.41;;;-2.76;55.11
8703;BME280;9002;42.708;23.186;2024-01-11T05:58:17;95762.31;;;-2.72;53.79
8703;BME280;9002;42.708;23.186;2024-01-11T06:00:45;95757.09;;;-2.70;53.55
8703;BME280;9002;42.708;23.186;2024-01-11T06:03:12;95755.09;;;-2.67;53.44
8703;BME280;9002;42.708;23.186;2024-01-11T06:05:39;95758.69;;;-2.60;54.03
8703;BME280;9002;42.708;23.186;2024-01-11T06:08:08;95750.44;;;-2.71;54.23
8703;BME280;9002;42.708;23.186;2024-01-11T06:10:35;95753.53;;;-2.77;53.82
8703;BME280;9002;42.708;23.186;2024-01-11T06:13:02;95750.19;;;-2.88;54.27
8703;BME280;9002;42.708;23.186;2024-01-11T06:15:29;95754.06;;;-2.74;53.53
8703;BME280;9002;42.708;23.186;2024-01-11T06:17:56;95755.06;;;-2.57;54.61
8703;BME280;9002;42.708;23.186;2024-01-11T06:20:23;95745.47;;;-2.63;53.73
8703;BME280;9002;42.708;23.186;2024-01-11T06:22:49;95763.09;;;-2.62;54.92
8703;BME280;9002;42.708;23.186;2024-01-11T06:25:18;95748.25;;;-2.57;53.40
8703;BME280;9002;42.708;23.186;2024-01-11T06:27:46;95733.03;;;-2.57;54.52
8703;BME280;9002;42.708;23.186;2024-01-11T06:30:14;95735.88;;;-2.60;54.54
8703;BME280;9002;42.708;23.186;2024-01-11T06:32:40;95745.88;;;-2.58;53.66
8703;BME280;9002;42.708;23.186;2024-01-11T06:35:08;95737.44;;;-2.49;54.07
8703;BME280;9002;42.708;23.186;2024-01-11T06:37:35;95702.63;;;-2.57;54.20
8703;BME280;9002;42.708;23.186;2024-01-11T06:40:07;95728.69;;;-2.37;54.52
8703;BME280;9002;42.708;23.186;2024-01-11T06:42:35;95736.53;;;-2.30;55.19
8703;BME280;9002;42.708;23.186;2024-01-11T06:45:03;95725.59;;;-2.31;53.79
8703;BME280;9002;42.708;23.186;2024-01-11T06:47:30;95702.19;;;-2.52;55.71
8703;BME280;9002;42.708;23.186;2024-01-11T06:49:57;95727.66;;;-2.16;54.66
8703;BME280;9002;42.708;23.186;2024-01-11T06:52:25;95737.19;;;-2.28;54.82
8703;BME280;9002;42.708;23.186;2024-01-11T06:54:52;95717.91;;;-2.76;56.81
8703;BME280;9002;42.708;23.186;2024-01-11T06:57:19;95717.19;;;-2.59;56.56
8703;BME280;9002;42.708;23.186;2024-01-11T06:59:47;95727.75;;;-2.36;55.84
8703;BME280;9002;42.708;23.186;2024-01-11T07:02:16;95740.44;;;-2.36;55.34
8703;BME280;9002;42.708;23.186;2024-01-11T07:04:44;95728.19;;;-2.40;55.25
8703;BME280;9002;42.708;23.186;2024-01-11T07:07:11;95736.34;;;-2.19;54.38
8703;BME280;9002;42.708;23.186;2024-01-11T07:09:38;95735.78;;;-2.13;54.38
8703;BME280;9002;42.708;23.186;2024-01-11T07:12:06;95733.91;;;-2.11;54.71
8703;BME280;9002;42.708;23.186;2024-01-11T07:14:33;95738.75;;;-2.17;55.76
8703;BME280;9002;42.708;23.186;2024-01-11T07:17:01;95737.59;;;-2.23;54.91
8703;BME280;9002;42.708;23.186;2024-01-11T07:19:29;95738.56;;;-2.06;54.32
8703;BME280;9002;42.708;23.186;2024-01-11T07:21:56;95730.03;;;-2.33;55.31
8703;BME280;9002;42.708;23.186;2024-01-11T07:24:23;95670.94;;;-2.52;55.17
8703;BME280;9002;42.708;23.186;2024-01-11T07:26:50;95713.47;;;-2.37;54.36
8703;BME280;9002;42.708;23.186;2024-01-11T07:29:17;95718.28;;;-2.34;54.10
8703;BME280;9002;42.708;23.186;2024-01-11T07:31:44;95718.34;;;-2.25;54.18
8703;BME280;9002;42.708;23.186;2024-01-11T07:34:13;95732.16;;;-2.10;52.95
8703;BME280;9002;42.708;23.186;2024-01-11T07:36:40;95727.69;;;-1.98;53.96
8703;BME280;9002;42.708;23.186;2024-01-11T07:39:07;95723.84;;;-2.03;54.60
8703;BME280;9002;42.708;23.186;2024-01-11T07:41:34;95731.91;;;-1.89;53.38
8703;BME280;9002;42.708;23.186;2024-01-11T07:44:01;95726.09;;;-2.00;52.79
8703;BME280;9002;42.708;23.186;2024-01-11T07:46:28;95702.88;;;-2.05;54.08
8703;BME280;9002;42.708;23.186;2024-01-11T07:48:55;95705.44;;;-2.05;54.04
8703;BME280;9002;42.708;23.186;2024-01-11T07:51:23;95693.25;;;-2.56;55.41
8703;BME280;9002;42.708;23.186;2024-01-11T07:53:50;95723.00;;;-2.48;56.35
8703;BME280;9002;42.708;23.186;2024-01-11T07:56:17;95712.56;;;-2.18;54.99
8703;BME280;9002;42.708;23.186;2024-01-11T07:58:44;95716.09;;;-2.01;54.73
8703;BME280;9002;42.708;23.186;2024-01-11T08:01:11;95712.66;;;-2.10;55.01
8703;BME280;9002;42.708;23.186;2024-01-11T08:03:39;95691.72;;;-2.12;54.38
8703;BME280;9002;42.708;23.186;2024-01-11T08:06:07;95717.28;;;-1.78;54.35
8703;BME280;9002;42.708;23.186;2024-01-11T08:08:37;95722.06;;;-1.75;54.70
8703;BME280;9002;42.708;23.186;2024-01-11T08:11:04;95708.06;;;-1.79;54.03
8703;BME280;9002;42.708;23.186;2024-01-11T08:13:31;95718.94;;;-1.86;53.66
8703;BME280;9002;42.708;23.186;2024-01-11T08:16:00;95698.97;;;-1.81;53.71
8703;BME280;9002;42.708;23.186;2024-01-11T08:18:29;95702.56;;;-2.19;55.09
8703;BME280;9002;42.708;23.186;2024-01-11T08:20:56;95695.03;;;-2.11;55.14
8703;BME280;9002;42.708;23.186;2024-01-11T08:23:23;95692.03;;;-1.97;54.43
8703;BME280;9002;42.708;23.186;2024-01-11T08:25:51;95689.69;;;-1.73;54.09
8703;BME280;9002;42.708;23.186;2024-01-11T08:28:18;95702.06;;;-1.60;53.46
8703;BME280;9002;42.708;23.186;2024-01-11T08:30:46;95693.47;;;-1.41;53.11
8703;BME280;9002;42.708;23.186;2024-01-11T08:33:13;95659.81;;;-1.61;52.59
8703;BME280;9002;42.708;23.186;2024-01-11T08:35:40;95682.03;;;-1.19;52.27
8703;BME280;9002;42.708;23.186;2024-01-11T08:38:07;95695.09;;;-0.88;52.29
8703;BME280;9002;42.708;23.186;2024-01-11T08:40:35;95686.09;;;-0.74;51.28
8703;BME280;9002;42.708;23.186;2024-01-11T08:43:04;95677.28;;;-0.62;50.78
8703;BME280;9002;42.708;23.186;2024-01-11T08:45:39;95701.63;;;-0.17;50.57
8703;BME280;9002;42.708;23.186;2024-01-11T08:48:09;95689.31;;;-0.30;50.53
8703;BME280;9002;42.708;23.186;2024-01-11T08:50:36;95682.88;;;-0.50;50.28
8703;BME280;9002;42.708;23.186;2024-01-11T08:53:03;95693.69;;;-0.14;49.69
8703;BME280;9002;42.708;23.186;2024-01-11T08:55:33;95690.84;;;0.05;50.13
8703;BME280;9002;42.708;23.186;2024-01-11T08:58:00;95685.44;;;-0.08;48.69
8703;BME280;9002;42.708;23.186;2024-01-11T09:00:28;95687.34;;;0.06;49.46
8703;BME280;9002;42.708;23.186;2024-01-11T09:02:55;95675.09;;;-0.07;48.63
8703;BME280;9002;42.708;23.186;2024-01-11T09:05:22;95675.25;;;-0.08;49.51
8703;BME280;9002;42.708;23.186;2024-01-11T09:07:49;95665.03;;;-0.16;49.65
8703;BME280;9002;42.708;23.186;2024-01-11T09:10:16;95657.41;;;-0.16;49.67
8703;BME280;9002;42.708;23.186;2024-01-11T09:12:46;95648.56;;;-0.38;50.44
8703;BME280;9002;42.708;23.186;2024-01-11T09:15:14;95640.63;;;-0.43;50.31
8703;BME280;9002;42.708;23.186;2024-01-11T09:17:43;95636.59;;;-0.46;49.18
8703;BME280;9002;42.708;23.186;2024-01-11T09:20:10;95631.44;;;-0.70;49.75
8703;BME280;9002;42.708;23.186;2024-01-11T09:22:40;95640.94;;;-0.38;49.75
8703;BME280;9002;42.708;23.186;2024-01-11T09:25:07;95623.72;;;-0.52;49.69
8703;BME280;9002;42.708;23.186;2024-01-11T09:27:34;95633.59;;;-0.83;49.46
8703;BME280;9002;42.708;23.186;2024-01-11T09:30:02;95638.50;;;-0.90;49.57
8703;BME280;9002;42.708;23.186;2024-01-11T09:32:29;95632.00;;;-0.84;49.30
8703;BME280;9002;42.708;23.186;2024-01-11T09:34:58;95623.16;;;-0.80;50.18
8703;BME280;9002;42.708;23.186;2024-01-11T09:37:25;95638.47;;;-1.24;51.57
8703;BME280;9002;42.708;23.186;2024-01-11T09:39:52;95608.94;;;-1.25;51.94
8703;BME280;9002;42.708;23.186;2024-01-11T09:42:19;95620.97;;;-1.01;51.09
8703;BME280;9002;42.708;23.186;2024-01-11T09:44:46;95615.28;;;-0.95;51.49
8703;BME280;9002;42.708;23.186;2024-01-11T09:47:15;95602.84;;;-0.64;50.77
8703;BME280;9002;42.708;23.186;2024-01-11T09:49:44;95600.66;;;-0.51;50.90
8703;BME280;9002;42.708;23.186;2024-01-11T09:52:15;95592.09;;;-0.42;50.36
8703;BME280;9002;42.708;23.186;2024-01-11T09:54:43;95597.66;;;-0.38;49.59
8703;BME280;9002;42.708;23.186;2024-01-11T09:57:10;95582.72;;;-0.41;49.91
8703;BME280;9002;42.708;23.186;2024-01-11T09:59:37;95578.53;;;-0.59;50.23
8703;BME280;9002;42.708;23.186;2024-01-11T10:02:05;95580.75;;;-0.55;51.15
8703;BME280;9002;42.708;23.186;2024-01-11T10:04:35;95557.16;;;-0.82;50.59
8703;BME280;9002;42.708;23.186;2024-01-11T10:07:04;95553.06;;;-0.67;51.11
8703;BME280;9002;42.708;23.186;2024-01-11T10:09:33;95561.41;;;-0.40;51.05
8703;BME280;9002;42.708;23.186;2024-01-11T10:12:00;95562.69;;;-0.20;50.69
8703;BME280;9002;42.708;23.186;2024-01-11T10:14:28;95551.09;;;-0.14;50.51
8703;BME280;9002;42.708;23.186;2024-01-11T10:16:57;95532.94;;;-0.11;50.28
8703;BME280;9002;42.708;23.186;2024-01-11T10:19:24;95539.34;;;0.09;49.66
8703;BME280;9002;42.708;23.186;2024-01-11T10:21:51;95537.88;;;0.15;49.22
8703;BME280;9002;42.708;23.186;2024-01-11T10:24:18;95533.28;;;0.18;49.46
8703;BME280;9002;42.708;23.186;2024-01-11T10:26:50;95527.50;;;0.33;50.77
8703;BME280;9002;42.708;23.186;2024-01-11T10:29:17;95534.81;;;0.52;49.82
8703;BME280;9002;42.708;23.186;2024-01-11T10:31:43;95526.34;;;0.60;49.47
8703;BME280;9002;42.708;23.186;2024-01-11T10:34:11;95517.72;;;0.69;48.45
8703;BME280;9002;42.708;23.186;2024-01-11T10:36:38;95495.91;;;0.66;49.57
8703;BME280;9002;42.708;23.186;2024-01-11T10:39:07;95490.75;;;0.82;48.09
8703;BME280;9002;42.708;23.186;2024-01-11T10:41:38;95508.69;;;0.97;49.06
8703;BME280;9002;42.708;23.186;2024-01-11T10:44:20;95507.72;;;0.98;49.46
8703;BME280;9002;42.708;23.186;2024-01-11T10:46:49;95505.13;;;1.06;48.70
8703;BME280;9002;42.708;23.186;2024-01-11T10:49:17;95504.44;;;1.21;49.37
8703;BME280;9002;42.708;23.186;2024-01-11T10:51:49;95506.38;;;1.41;48.14
8703;BME280;9002;42.708;23.186;2024-01-11T10:54:17;95477.53;;;1.41;47.06
8703;BME280;9002;42.708;23.186;2024-01-11T10:56:47;95472.38;;;1.72;47.37
8703;BME280;9002;42.708;23.186;2024-01-11T10:59:16;95488.13;;;1.98;46.91
8703;BME280;9002;42.708;23.186;2024-01-11T11:01:45;95472.84;;;2.28;45.91
8703;BME280;9002;42.708;23.186;2024-01-11T11:04:13;95465.88;;;2.81;43.24
8703;BME280;9002;42.708;23.186;2024-01-11T11:06:43;95445.16;;;3.69;43.14
8703;BME280;9002;42.708;23.186;2024-01-11T11:09:11;95471.66;;;5.15;39.08
8703;BME280;9002;42.708;23.186;2024-01-11T11:11:40;95454.03;;;6.39;36.74
8703;BME280;9002;42.708;23.186;2024-01-11T11:14:08;95450.25;;;7.06;35.24
8703;BME280;9002;42.708;23.186;2024-01-11T11:16:37;95442.28;;;7.84;34.18
8703;BME280;9002;42.708;23.186;2024-01-11T11:19:04;95436.66;;;8.62;32.61
8703;BME280;9002;42.708;23.186;2024-01-11T11:21:31;95438.00;;;9.20;31.14
8703;BME280;9002;42.708;23.186;2024-01-11T11:23:58;95430.41;;;9.66;31.55
8703;BME280;9002;42.708;23.186;2024-01-11T11:26:26;95408.22;;;9.59;30.20
8703;BME280;9002;42.708;23.186;2024-01-11T11:28:54;95413.91;;;9.91;30.10
8703;BME280;9002;42.708;23.186;2024-01-11T11:31:34;95397.94;;;10.06;29.58
8703;BME280;9002;42.708;23.186;2024-01-11T11:34:04;95404.69;;;8.45;31.58
8703;BME280;9002;42.708;23.186;2024-01-11T11:36:33;95401.19;;;9.06;30.84
8703;BME280;9002;42.708;23.186;2024-01-11T11:39:01;95402.69;;;9.14;31.40
8703;BME280;9002;42.708;23.186;2024-01-11T11:41:30;95391.16;;;8.98;30.43
8703;BME280;9002;42.708;23.186;2024-01-11T11:44:00;95384.44;;;9.38;30.27
8703;BME280;9002;42.708;23.186;2024-01-11T11:46:27;95387.00;;;8.97;30.25
8703;BME280;9002;42.708;23.186;2024-01-11T11:48:56;95371.97;;;9.05;30.89
8703;BME280;9002;42.708;23.186;2024-01-11T11:51:25;95366.28;;;9.15;30.77
8703;BME280;9002;42.708;23.186;2024-01-11T11:53:53;95382.66;;;9.39;31.64
8703;BME280;9002;42.708;23.186;2024-01-11T11:56:21;95369.09;;;8.84;31.69
8703;BME280;9002;42.708;23.186;2024-01-11T11:58:49;95371.75;;;9.07;32.36
8703;BME280;9002;42.708;23.186;2024-01-11T12:01:17;95356.94;;;8.36;33.20
8703;BME280;9002;42.708;23.186;2024-01-11T12:03:45;95359.13;;;8.50;32.78
8703;BME280;9002;42.708;23.186;2024-01-11T12:06:16;95356.44;;;8.20;33.65
8703;BME280;9002;42.708;23.186;2024-01-11T12:08:45;95346.63;;;8.11;33.51
8703;BME280;9002;42.708;23.186;2024-01-11T12:11:17;95335.25;;;7.50;35.06
8703;BME280;9002;42.708;23.186;2024-01-11T12:13:47;95329.41;;;8.23;35.20
8703;BME280;9002;42.708;23.186;2024-01-11T12:16:14;95339.25;;;8.14;34.64
8703;BME280;9002;42.708;23.186;2024-01-11T12:18:41;95333.63;;;7.56;35.89
8703;BME280;9002;42.708;23.186;2024-01-11T12:21:08;95323.25;;;7.37;36.39
8703;BME280;9002;42.708;23.186;2024-01-11T12:23:39;95300.91;;;7.31;37.54
8703;BME280;9002;42.708;23.186;2024-01-11T12:26:08;95282.81;;;7.13;37.12
8703;BME280;9002;42.708;23.186;2024-01-11T12:28:39;95310.63;;;7.29;37.34
8703;BME280;9002;42.708;23.186;2024-01-11T12:31:07;95305.06;;;7.57;37.26
8703;BME280;9002;42.708;23.186;2024-01-11T12:33:34;95303.34;;;7.45;37.80
8703;BME280;9002;42.708;23.186;2024-01-11T12:36:05;95306.94;;;7.68;38.08
8703;BME280;9002;42.708;23.186;2024-01-11T12:38:33;95299.88;;;7.82;37.36
8703;BME280;9002;42.708;23.186;2024-01-11T12:41:01;95293.78;;;7.95;36.39
8703;BME280;9002;42.708;23.186;2024-01-11T12:43:30;95278.38;;;7.88;37.54
8703;BME280;9002;42.708;23.186;2024-01-11T12:45:59;95279.09;;;8.14;36.67
8703;BME280;9002;42.708;23.186;2024-01-11T12:48:26;95271.91;;;7.61;37.52
8703;BME280;9002;42.708;23.186;2024-01-11T12:50:56;95287.56;;;7.09;38.93
8703;BME280;9002;42.708;23.186;2024-01-11T12:53:24;95238.38;;;7.18;38.36
8703;BME280;9002;42.708;23.186;2024-01-11T12:56:02;95278.78;;;7.17;38.35
8703;BME280;9002;42.708;23.186;2024-01-11T12:58:33;95275.06;;;7.13;38.69
8703;BME280;9002;42.708;23.186;2024-01-11T13:01:00;95250.78;;;6.71;38.26
8703;BME280;9002;42.708;23.186;2024-01-11T13:03:28;95258.19;;;6.92;39.86
8703;BME280;9002;42.708;23.186;2024-01-11T13:05:54;95254.38;;;7.01;38.87
8703;BME280;9002;42.708;23.186;2024-01-11T13:08:21;95260.56;;;6.94;39.87
8703;BME280;9002;42.708;23.186;2024-01-11T13:10:48;95246.28;;;6.91;39.42
8703;BME280;9002;42.708;23.186;2024-01-11T13:13:15;95247.69;;;6.94;39.79
8703;BME280;9002;42.708;23.186;2024-01-11T13:15:44;95247.47;;;6.95;40.34